createdAt,value
2018-08-09T00:00:02.222Z,1000.42
2018-08-09T00:05:01.499Z,1000.43
2018-08-09T00:10:01.760Z,1000.35
2018-08-09T00:15:02.197Z,1000.34
2018-08-09T00:20:01.458Z,1000.26
2018-08-09T00:25:01.946Z,1000.19
2018-08-09T00:30:02.368Z,1000.18
2018-08-09T00:35:01.834Z,1000.18
2018-08-09T00:40:02.205Z,1000.22
2018-08-09T00:45:01.697Z,1000.25
2018-08-09T00:50:02.363Z,1000.19
2018-08-09T00:55:01.678Z,1000.2
2018-08-09T01:00:02.026Z,1000.11
2018-08-09T01:05:01.447Z,1000.08
2018-08-09T01:10:01.843Z,999.99
2018-08-09T01:15:02.128Z,1000.03
2018-08-09T01:20:01.552Z,999.94
2018-08-09T01:25:02.233Z,1000.02
2018-08-09T01:30:01.572Z,999.99
2018-08-09T01:35:02.058Z,1000.05
2018-08-09T01:40:01.356Z,999.88
2018-08-09T01:45:01.704Z,999.92
2018-08-09T01:50:02.175Z,999.92
2018-08-09T01:55:01.514Z,999.92
2018-08-09T02:00:01.792Z,999.91
2018-08-09T02:05:02.675Z,999.79
2018-08-09T02:10:02.183Z,999.76
2018-08-09T02:15:01.434Z,999.69
2018-08-09T02:20:01.839Z,999.56
2018-08-09T02:25:02.286Z,999.49
2018-08-09T02:30:01.681Z,999.42
2018-08-09T02:35:02.165Z,999.24
2018-08-09T02:40:01.787Z,999.19
2018-08-09T02:45:02.288Z,999.23
2018-08-09T02:50:01.508Z,999.21
2018-08-09T02:55:01.904Z,999.16
2018-08-09T03:00:02.262Z,999.08
2018-08-09T03:05:01.628Z,999.03
2018-08-09T03:10:01.873Z,999.03
2018-08-09T03:15:01.316Z,998.93
2018-08-09T03:20:01.703Z,998.95
2018-08-09T03:25:01.973Z,999.09
2018-08-09T03:30:02.265Z,999.09
2018-08-09T03:35:01.609Z,999.04
2018-08-09T03:40:01.923Z,999.2
2018-08-09T03:45:02.185Z,999.14
2018-08-09T03:50:01.466Z,999.04
2018-08-09T03:55:01.736Z,998.99
2018-08-09T04:00:02.023Z,998.93
2018-08-09T04:05:01.308Z,998.72
2018-08-09T04:10:01.562Z,998.82
2018-08-09T04:15:01.791Z,998.83
2018-08-09T04:20:02.351Z,998.92
2018-08-09T04:25:01.779Z,998.88
2018-08-09T04:30:02.102Z,998.98
2018-08-09T04:35:01.411Z,998.98
2018-08-09T04:40:02.246Z,998.87
2018-08-09T04:45:01.481Z,998.9
2018-08-09T04:50:01.932Z,998.77
2018-08-09T04:55:02.199Z,998.62
2018-08-09T05:00:01.465Z,998.73
2018-08-09T05:05:01.832Z,998.78
2018-08-09T05:10:02.092Z,998.9
2018-08-09T05:15:01.346Z,998.83
2018-08-09T05:20:01.798Z,998.72
2018-08-09T05:25:02.193Z,998.67
2018-08-09T05:30:01.441Z,998.48
2018-08-09T05:35:01.808Z,998.48
2018-08-09T05:40:02.086Z,998.43
2018-08-09T05:45:01.323Z,998.34
2018-08-09T05:50:01.683Z,998.29
2018-08-09T05:55:01.941Z,998.31
2018-08-09T06:00:02.215Z,998.27
2018-08-09T06:05:01.518Z,998.23
2018-08-09T06:10:01.751Z,998.17
2018-08-09T06:15:02.002Z,998.04
2018-08-09T06:20:01.297Z,997.99
2018-08-09T06:25:01.602Z,997.97
2018-08-09T06:30:01.894Z,997.91
2018-08-09T06:35:02.400Z,997.67
2018-08-09T06:40:01.692Z,997.48
2018-08-09T06:45:01.966Z,997.49
2018-08-09T06:50:02.468Z,997.5
2018-08-09T06:55:01.744Z,997.46
2018-08-09T07:00:02.022Z,997.39
2018-08-09T07:05:01.304Z,997.39
2018-08-09T07:10:01.548Z,997.34
2018-08-09T07:15:01.840Z,997.25
2018-08-09T07:20:02.259Z,997.23
2018-08-09T07:25:01.544Z,997.27
2018-08-09T07:30:01.801Z,997.16
2018-08-09T07:35:02.323Z,997.26
2018-08-09T07:40:01.611Z,997.21
2018-08-09T07:45:01.848Z,997.26
2018-08-09T07:50:02.227Z,997.21
2018-08-09T07:55:01.515Z,997.1
2018-08-09T08:00:01.765Z,996.99
2018-08-09T08:05:02.286Z,996.88
2018-08-09T08:10:01.593Z,996.74
2018-08-09T08:15:02.106Z,996.61
2018-08-09T08:20:01.442Z,996.58
2018-08-09T08:25:01.816Z,996.73
2018-08-09T08:30:02.146Z,996.73
2018-08-09T08:35:01.429Z,996.69
2018-08-09T08:40:01.746Z,996.66
2018-08-09T08:45:02.006Z,996.56
2018-08-09T08:50:01.349Z,996.54
2018-08-09T08:55:01.643Z,996.59
2018-08-09T09:00:01.933Z,996.32
2018-08-09T09:05:02.610Z,996.12
2018-08-09T09:10:01.889Z,995.88
2018-08-09T09:15:02.172Z,995.8
2018-08-09T09:20:01.451Z,995.86
2018-08-09T09:25:01.847Z,995.78
2018-08-09T09:30:02.106Z,995.54
2018-08-09T09:35:01.632Z,995.38
2018-08-09T09:40:01.933Z,994.98
2018-08-09T09:45:02.197Z,994.83
2018-08-09T09:50:01.513Z,994.66
2018-08-09T09:55:02.071Z,994.42
2018-08-09T10:00:01.372Z,994.27
2018-08-09T10:05:01.791Z,994.18
2018-08-09T10:10:02.068Z,994.11
2018-08-09T10:15:01.321Z,994.23
2018-08-09T10:20:01.669Z,994.21
2018-08-09T10:25:01.989Z,994.04
2018-08-09T10:30:01.540Z,993.94
2018-08-09T10:35:01.980Z,993.96
2018-08-09T10:40:02.272Z,993.93
2018-08-09T10:45:01.596Z,993.99
2018-08-09T10:50:02.033Z,993.93
2018-08-09T10:55:01.277Z,993.84
2018-08-09T11:00:01.603Z,993.61
2018-08-09T11:05:02.124Z,993.39
2018-08-09T11:10:01.402Z,993.4
2018-08-09T11:15:01.793Z,993.37
2018-08-09T11:20:02.266Z,993.33
2018-08-09T11:25:01.606Z,993.29
2018-08-09T11:30:01.845Z,993.07
2018-08-09T11:35:02.280Z,992.93
2018-08-09T11:40:01.551Z,992.73
2018-08-09T11:45:01.816Z,992.61
2018-08-09T11:50:02.278Z,992.51
2018-08-09T11:55:01.584Z,992.55
2018-08-09T12:00:01.837Z,992.59
2018-08-09T12:05:02.306Z,992.47
2018-08-09T12:10:01.593Z,992.57
2018-08-09T12:15:02.089Z,992.9
2018-08-09T12:20:01.400Z,992.91
2018-08-09T12:25:01.754Z,993.08
2018-08-09T12:30:02.017Z,993.03
2018-08-09T12:35:01.376Z,993.12
2018-08-09T12:40:01.657Z,993.64
2018-08-09T12:45:01.900Z,994.25
2018-08-09T12:50:02.340Z,994.06
2018-08-09T12:55:01.667Z,994.08
2018-08-09T13:00:02.169Z,994.11
2018-08-09T13:05:01.567Z,994.16
2018-08-09T13:10:01.844Z,993.85
2018-08-09T13:15:02.114Z,993.6
2018-08-09T13:20:01.756Z,993.51
2018-08-09T13:25:02.016Z,993.4
2018-08-09T13:30:01.275Z,993.61
2018-08-09T13:35:01.608Z,994.15
2018-08-09T13:40:01.851Z,994.41
2018-08-09T13:45:02.108Z,994.39
2018-08-09T13:50:01.386Z,994.54
2018-08-09T13:55:01.672Z,994.36
2018-08-09T14:00:01.962Z,994.15
2018-08-09T14:05:02.423Z,994.11
2018-08-09T14:10:01.697Z,994.19
2018-08-09T14:15:01.966Z,994.35
2018-08-09T14:20:01.285Z,994.39
2018-08-09T14:25:02.012Z,994.54
2018-08-09T14:30:01.347Z,994.54
2018-08-09T14:35:01.817Z,994.68
2018-08-09T14:40:02.116Z,994.71
2018-08-09T14:45:01.348Z,994.63
2018-08-09T14:50:01.724Z,994.63
2018-08-09T14:55:01.991Z,994.57
2018-08-09T15:00:01.298Z,994.53
2018-08-09T15:05:01.681Z,994.55
2018-08-09T15:10:01.943Z,994.52
2018-08-09T15:15:02.254Z,994.66
2018-08-09T15:20:01.577Z,994.65
2018-08-09T15:25:02.010Z,994.7
2018-08-09T15:30:01.271Z,994.77
2018-08-09T15:35:01.665Z,994.86
2018-08-09T15:40:01.922Z,994.9
2018-08-09T15:45:02.165Z,994.98
2018-08-09T15:50:01.441Z,995.1
2018-08-09T15:55:01.743Z,995.07
2018-08-09T16:00:02.061Z,994.99
2018-08-09T16:05:01.310Z,994.94
2018-08-09T16:10:01.638Z,994.88
2018-08-09T16:15:01.939Z,994.78
2018-08-09T16:20:02.421Z,994.79
2018-08-09T16:25:01.768Z,994.87
2018-08-09T16:30:02.248Z,994.88
2018-08-09T16:35:01.568Z,994.89
2018-08-09T16:40:01.836Z,994.77
2018-08-09T16:45:02.086Z,994.66
2018-08-09T16:50:01.378Z,994.64
2018-08-09T16:55:01.658Z,994.71
2018-08-09T17:00:01.919Z,994.78
2018-08-09T17:05:02.421Z,994.78
2018-08-09T17:10:01.698Z,994.78
2018-08-09T17:15:02.002Z,994.69
2018-08-09T17:20:01.273Z,994.74
2018-08-09T17:25:01.618Z,994.91
2018-08-09T17:30:01.871Z,994.89
2018-08-09T17:35:02.349Z,994.82
2018-08-09T17:40:01.649Z,994.78
2018-08-09T17:45:01.906Z,994.83
2018-08-09T17:50:02.346Z,994.85
2018-08-09T17:55:01.631Z,995.03
2018-08-09T18:00:01.912Z,995.22
2018-08-09T18:05:02.628Z,995.23
2018-08-09T18:10:01.930Z,995.36
2018-08-09T18:15:02.211Z,995.56
2018-08-09T18:20:01.473Z,995.63
2018-08-09T18:25:01.755Z,995.64
2018-08-09T18:30:02.001Z,995.84
2018-08-09T18:35:01.303Z,995.87
2018-08-09T18:40:01.556Z,996.09
2018-08-09T18:45:01.829Z,996.23
2018-08-09T18:50:02.245Z,996.42
2018-08-09T18:55:01.526Z,996.44
2018-08-09T19:00:01.768Z,996.68
2018-08-09T19:05:02.346Z,996.77
2018-08-09T19:10:01.621Z,996.8
2018-08-09T19:15:02.190Z,997.02
2018-08-09T19:20:01.481Z,997.15
2018-08-09T19:25:01.782Z,997.22
2018-08-09T19:30:02.070Z,997.25
2018-08-09T19:35:01.339Z,997.13
2018-08-09T19:40:01.638Z,997.27
2018-08-09T19:45:01.920Z,997.37
2018-08-09T19:50:02.365Z,997.48
2018-08-09T19:55:01.635Z,997.71
2018-08-09T20:00:02.291Z,997.79
2018-08-09T20:05:01.825Z,997.94
2018-08-09T20:10:02.075Z,998.02
2018-08-09T20:15:01.722Z,998.22
2018-08-09T20:20:02.174Z,998.24
2018-08-09T20:25:01.420Z,998.43
2018-08-09T20:30:01.713Z,998.53
2018-08-09T20:35:02.262Z,998.64
2018-08-09T20:40:01.528Z,998.71
2018-08-09T20:45:01.900Z,998.77
2018-08-09T20:50:02.426Z,998.81
2018-08-09T20:55:01.746Z,998.9
2018-08-09T21:00:01.992Z,999.06
2018-08-09T21:05:01.280Z,999.12
2018-08-09T21:10:01.570Z,999.21
2018-08-09T21:15:01.861Z,999.34
2018-08-09T21:20:02.249Z,999.56
2018-08-09T21:25:01.634Z,999.69
2018-08-09T21:30:01.903Z,999.86
2018-08-09T21:35:02.419Z,1000
2018-08-09T21:40:01.748Z,1000.21
2018-08-09T21:45:02.010Z,1000.3
2018-08-09T21:50:01.276Z,1000.39
2018-08-09T21:55:01.541Z,1000.65
2018-08-09T22:00:01.821Z,1000.79
2018-08-09T22:05:02.323Z,1000.99
2018-08-09T22:10:01.594Z,1001.08
2018-08-09T22:15:01.852Z,1001.22
2018-08-09T22:20:02.261Z,1001.27
2018-08-09T22:25:01.516Z,1001.47
2018-08-09T22:30:01.749Z,1001.57
2018-08-09T22:35:02.299Z,1001.67
2018-08-09T22:40:01.601Z,1001.79
2018-08-09T22:45:01.832Z,1001.93
2018-08-09T22:50:02.268Z,1002.01
2018-08-09T22:55:01.530Z,1002.03
2018-08-09T23:00:01.793Z,1002.09
2018-08-09T23:05:02.299Z,1002.09
2018-08-09T23:10:01.636Z,1002.11
2018-08-09T23:15:01.904Z,1002.15
2018-08-09T23:20:02.364Z,1002.17
2018-08-09T23:25:01.658Z,1002.23
2018-08-09T23:30:01.944Z,1002.34
2018-08-09T23:35:02.425Z,1002.45
2018-08-09T23:40:01.715Z,1002.7
2018-08-09T23:45:02.004Z,1002.88
2018-08-09T23:50:01.315Z,1003.06
2018-08-09T23:55:01.647Z,1003.02
